sensor_id;sensor_type;location;lat;lon;timestamp;P1;durP1;ratioP1;P2;durP2;ratioP2
15667;SDS011;7934;48.710;9.024;2023-01-13T00:00:06;1.50;;;0.98;;
15667;SDS011;7934;48.710;9.024;2023-01-13T00:02:35;1.30;;;0.98;;
15667;SDS011;7934;48.710;9.024;2023-01-13T00:05:02;1.95;;;1.02;;
15667;SDS011;7934;48.710;9.024;2023-01-13T00:07:29;1.50;;;0.98;;
15667;SDS011;7934;48.710;9.024;2023-01-13T00:09:56;1.80;;;0.95;;
15667;SDS011;7934;48.710;9.024;2023-01-13T00:12:24;2.90;;;0.90;;
15667;SDS011;7934;48.710;9.024;2023-01-13T00:14:51;0.98;;;0.98;;
15667;SDS011;7934;48.710;9.024;2023-01-13T00:17:18;2.40;;;0.98;;
15667;SDS011;7934;48.710;9.024;2023-01-13T00:19:46;0.70;;;0.70;;
15667;SDS011;7934;48.710;9.024;2023-01-13T00:22:13;2.73;;;1.10;;
15667;SDS011;7934;48.710;9.024;2023-01-13T00:24:40;2.45;;;1.02;;
15667;SDS011;7934;48.710;9.024;2023-01-13T00:27:08;3.10;;;1.05;;
15667;SDS011;7934;48.710;9.024;2023-01-13T00:29:35;3.43;;;1.30;;
15667;SDS011;7934;48.710;9.024;2023-01-13T00:32:02;2.05;;;0.90;;
15667;SDS011;7934;48.710;9.024;2023-01-13T00:34:29;2.05;;;1.23;;
15667;SDS011;7934;48.710;9.024;2023-01-13T00:36:58;2.90;;;0.88;;
15667;SDS011;7934;48.710;9.024;2023-01-13T00:39:25;4.07;;;1.40;;
15667;SDS011;7934;48.710;9.024;2023-01-13T00:41:52;2.53;;;0.90;;
15667;SDS011;7934;48.710;9.024;2023-01-13T00:44:37;1.85;;;1.05;;
15667;SDS011;7934;48.710;9.024;2023-01-13T00:47:04;2.90;;;0.93;;
15667;SDS011;7934;48.710;9.024;2023-01-13T00:49:31;1.13;;;0.90;;
15667;SDS011;7934;48.710;9.024;2023-01-13T00:52:00;1.45;;;0.98;;
15667;SDS011;7934;48.710;9.024;2023-01-13T00:54:27;2.13;;;1.33;;
15667;SDS011;7934;48.710;9.024;2023-01-13T00:56:54;1.42;;;0.90;;
15667;SDS011;7934;48.710;9.024;2023-01-13T00:59:21;1.17;;;0.90;;
15667;SDS011;7934;48.710;9.024;2023-01-13T01:01:48;1.35;;;1.23;;
15667;SDS011;7934;48.710;9.024;2023-01-13T01:04:15;3.92;;;1.30;;
15667;SDS011;7934;48.710;9.024;2023-01-13T01:06:42;3.05;;;0.98;;
15667;SDS011;7934;48.710;9.024;2023-01-13T01:09:11;1.90;;;1.00;;
15667;SDS011;7934;48.710;9.024;2023-01-13T01:11:39;2.05;;;1.05;;
15667;SDS011;7934;48.710;9.024;2023-01-13T01:14:06;0.90;;;0.90;;
15667;SDS011;7934;48.710;9.024;2023-01-13T01:16:33;2.70;;;1.10;;
15667;SDS011;7934;48.710;9.024;2023-01-13T01:19:00;2.85;;;1.63;;
15667;SDS011;7934;48.710;9.024;2023-01-13T01:21:29;2.30;;;0.80;;
15667;SDS011;7934;48.710;9.024;2023-01-13T01:23:57;2.72;;;0.90;;
15667;SDS011;7934;48.710;9.024;2023-01-13T01:26:26;1.38;;;1.08;;
15667;SDS011;7934;48.710;9.024;2023-01-13T01:28:53;1.30;;;0.90;;
15667;SDS011;7934;48.710;9.024;2023-01-13T01:31:21;1.50;;;0.95;;
15667;SDS011;7934;48.710;9.024;2023-01-13T01:33:49;2.13;;;1.00;;
15667;SDS011;7934;48.710;9.024;2023-01-13T01:36:17;1.15;;;0.80;;
15667;SDS011;7934;48.710;9.024;2023-01-13T01:38:45;1.52;;;0.80;;
15667;SDS011;7934;48.710;9.024;2023-01-13T01:41:13;2.20;;;1.00;;
15667;SDS011;7934;48.710;9.024;2023-01-13T01:43:51;2.90;;;1.00;;
15667;SDS011;7934;48.710;9.024;2023-01-13T01:46:25;3.00;;;1.00;;
15667;SDS011;7934;48.710;9.024;2023-01-13T01:48:53;0.95;;;0.85;;
15667;SDS011;7934;48.710;9.024;2023-01-13T01:51:21;3.13;;;1.20;;
15667;SDS011;7934;48.710;9.024;2023-01-13T01:53:48;1.38;;;0.80;;
15667;SDS011;7934;48.710;9.024;2023-01-13T01:56:16;1.95;;;1.08;;
15667;SDS011;7934;48.710;9.024;2023-01-13T01:58:44;2.70;;;1.00;;
15667;SDS011;7934;48.710;9.024;2023-01-13T02:01:14;3.15;;;1.17;;
15667;SDS011;7934;48.710;9.024;2023-01-13T02:03:45;2.93;;;1.37;;
15667;SDS011;7934;48.710;9.024;2023-01-13T02:06:16;2.78;;;1.00;;
15667;SDS011;7934;48.710;9.024;2023-01-13T02:08:43;0.88;;;0.80;;
15667;SDS011;7934;48.710;9.024;2023-01-13T02:11:24;2.08;;;1.00;;
15667;SDS011;7934;48.710;9.024;2023-01-13T02:14:06;1.30;;;1.00;;
15667;SDS011;7934;48.710;9.024;2023-01-13T02:16:34;2.60;;;0.90;;
15667;SDS011;7934;48.710;9.024;2023-01-13T02:19:04;1.52;;;1.20;;
15667;SDS011;7934;48.710;9.024;2023-01-13T02:21:47;1.55;;;1.00;;
15667;SDS011;7934;48.710;9.024;2023-01-13T02:24:25;2.17;;;1.07;;
15667;SDS011;7934;48.710;9.024;2023-01-13T02:30:12;1.20;;;0.70;;
15667;SDS011;7934;48.710;9.024;2023-01-13T02:33:03;1.90;;;1.00;;
15667;SDS011;7934;48.710;9.024;2023-01-13T02:35:35;1.60;;;0.90;;
15667;SDS011;7934;48.710;9.024;2023-01-13T02:38:03;1.80;;;1.20;;
15667;SDS011;7934;48.710;9.024;2023-01-13T02:40:32;3.72;;;1.08;;
15667;SDS011;7934;48.710;9.024;2023-01-13T02:43:00;1.20;;;1.10;;
15667;SDS011;7934;48.710;9.024;2023-01-13T02:45:49;2.00;;;1.13;;
15667;SDS011;7934;48.710;9.024;2023-01-13T02:48:18;1.90;;;1.00;;
15667;SDS011;7934;48.710;9.024;2023-01-13T02:50:48;1.67;;;0.90;;
15667;SDS011;7934;48.710;9.024;2023-01-13T02:53:18;1.13;;;0.88;;
15667;SDS011;7934;48.710;9.024;2023-01-13T02:55:49;2.85;;;1.00;;
15667;SDS011;7934;48.710;9.024;2023-01-13T02:58:17;2.42;;;0.90;;
15667;SDS011;7934;48.710;9.024;2023-01-13T03:00:47;0.77;;;0.77;;
15667;SDS011;7934;48.710;9.024;2023-01-13T03:03:16;2.22;;;1.05;;
15667;SDS011;7934;48.710;9.024;2023-01-13T03:05:43;1.80;;;1.00;;
15667;SDS011;7934;48.710;9.024;2023-01-13T03:08:15;2.10;;;0.90;;
15667;SDS011;7934;48.710;9.024;2023-01-13T03:10:50;1.20;;;0.90;;
15667;SDS011;7934;48.710;9.024;2023-01-13T03:13:20;0.80;;;0.80;;
15667;SDS011;7934;48.710;9.024;2023-01-13T03:15:53;2.30;;;0.80;;
15667;SDS011;7934;48.710;9.024;2023-01-13T03:18:27;2.30;;;1.03;;
15667;SDS011;7934;48.710;9.024;2023-01-13T03:20:59;1.33;;;0.90;;
15667;SDS011;7934;48.710;9.024;2023-01-13T03:23:30;2.30;;;0.65;;
15667;SDS011;7934;48.710;9.024;2023-01-13T03:26:03;2.20;;;0.70;;
15667;SDS011;7934;48.710;9.024;2023-01-13T03:28:31;2.53;;;0.80;;
15667;SDS011;7934;48.710;9.024;2023-01-13T03:31:00;1.10;;;0.80;;
15667;SDS011;7934;48.710;9.024;2023-01-13T03:33:32;3.20;;;1.00;;
15667;SDS011;7934;48.710;9.024;2023-01-13T03:36:01;1.48;;;1.10;;
15667;SDS011;7934;48.710;9.024;2023-01-13T03:38:30;1.85;;;0.80;;
15667;SDS011;7934;48.710;9.024;2023-01-13T03:40:59;2.08;;;1.00;;
15667;SDS011;7934;48.710;9.024;2023-01-13T03:43:27;2.00;;;0.88;;
15667;SDS011;7934;48.710;9.024;2023-01-13T03:46:15;1.95;;;1.00;;
15667;SDS011;7934;48.710;9.024;2023-01-13T03:48:45;1.77;;;0.80;;
15667;SDS011;7934;48.710;9.024;2023-01-13T03:51:13;1.60;;;0.65;;
15667;SDS011;7934;48.710;9.024;2023-01-13T03:53:42;2.33;;;1.07;;
15667;SDS011;7934;48.710;9.024;2023-01-13T03:56:13;1.67;;;0.90;;
15667;SDS011;7934;48.710;9.024;2023-01-13T03:58:42;1.77;;;0.80;;
15667;SDS011;7934;48.710;9.024;2023-01-13T04:01:11;1.40;;;0.90;;
15667;SDS011;7934;48.710;9.024;2023-01-13T04:03:41;1.38;;;0.80;;
15667;SDS011;7934;48.710;9.024;2023-01-13T04:06:11;3.60;;;0.90;;
15667;SDS011;7934;48.710;9.024;2023-01-13T04:08:40;2.10;;;0.98;;
15667;SDS011;7934;48.710;9.024;2023-01-13T04:11:11;3.00;;;1.13;;
15667;SDS011;7934;48.710;9.024;2023-01-13T04:13:40;1.67;;;1.00;;
15667;SDS011;7934;48.710;9.024;2023-01-13T04:16:11;3.75;;;0.85;;
15667;SDS011;7934;48.710;9.024;2023-01-13T04:18:39;1.53;;;0.80;;
15667;SDS011;7934;48.710;9.024;2023-01-13T04:21:08;0.70;;;0.70;;
15667;SDS011;7934;48.710;9.024;2023-01-13T04:23:37;1.02;;;0.70;;
15667;SDS011;7934;48.710;9.024;2023-01-13T04:26:04;2.28;;;0.82;;
15667;SDS011;7934;48.710;9.024;2023-01-13T04:28:31;2.40;;;0.77;;
15667;SDS011;7934;48.710;9.024;2023-01-13T04:30:58;1.80;;;0.60;;
15667;SDS011;7934;48.710;9.024;2023-01-13T04:33:26;1.52;;;0.73;;
15667;SDS011;7934;48.710;9.024;2023-01-13T04:35:53;1.30;;;0.60;;
15667;SDS011;7934;48.710;9.024;2023-01-13T04:38:20;3.22;;;1.00;;
15667;SDS011;7934;48.710;9.024;2023-01-13T04:40:48;0.60;;;0.60;;
15667;SDS011;7934;48.710;9.024;2023-01-13T04:43:15;1.17;;;0.70;;
15667;SDS011;7934;48.710;9.024;2023-01-13T04:45:43;0.85;;;0.80;;
15667;SDS011;7934;48.710;9.024;2023-01-13T04:48:10;1.25;;;0.90;;
15667;SDS011;7934;48.710;9.024;2023-01-13T04:50:37;0.93;;;0.65;;
15667;SDS011;7934;48.710;9.024;2023-01-13T04:53:05;3.83;;;1.00;;
15667;SDS011;7934;48.710;9.024;2023-01-13T04:55:32;0.95;;;0.80;;
15667;SDS011;7934;48.710;9.024;2023-01-13T04:58:04;1.05;;;0.80;;
15667;SDS011;7934;48.710;9.024;2023-01-13T05:00:31;2.08;;;0.70;;
15667;SDS011;7934;48.710;9.024;2023-01-13T05:02:58;0.68;;;0.68;;
15667;SDS011;7934;48.710;9.024;2023-01-13T05:05:26;1.25;;;0.85;;
15667;SDS011;7934;48.710;9.024;2023-01-13T05:07:53;0.88;;;0.80;;
15667;SDS011;7934;48.710;9.024;2023-01-13T05:10:21;1.40;;;0.93;;
15667;SDS011;7934;48.710;9.024;2023-01-13T05:12:48;2.03;;;0.70;;
15667;SDS011;7934;48.710;9.024;2023-01-13T05:15:34;1.20;;;0.77;;
15667;SDS011;7934;48.710;9.024;2023-01-13T05:18:19;0.50;;;0.50;;
15667;SDS011;7934;48.710;9.024;2023-01-13T05:20:46;0.63;;;0.63;;
15667;SDS011;7934;48.710;9.024;2023-01-13T05:23:13;0.65;;;0.65;;
15667;SDS011;7934;48.710;9.024;2023-01-13T05:25:58;0.70;;;0.60;;
15667;SDS011;7934;48.710;9.024;2023-01-13T05:28:28;0.50;;;0.50;;
15667;SDS011;7934;48.710;9.024;2023-01-13T05:30:57;1.77;;;0.68;;
15667;SDS011;7934;48.710;9.024;2023-01-13T05:33:24;2.15;;;0.70;;
15667;SDS011;7934;48.710;9.024;2023-01-13T05:35:52;2.60;;;0.60;;
15667;SDS011;7934;48.710;9.024;2023-01-13T05:38:19;0.77;;;0.70;;
15667;SDS011;7934;48.710;9.024;2023-01-13T05:40:46;0.67;;;0.67;;
15667;SDS011;7934;48.710;9.024;2023-01-13T05:43:31;1.20;;;0.55;;
15667;SDS011;7934;48.710;9.024;2023-01-13T05:46:00;0.70;;;0.65;;
15667;SDS011;7934;48.710;9.024;2023-01-13T05:48:29;0.50;;;0.50;;
15667;SDS011;7934;48.710;9.024;2023-01-13T05:50:56;1.63;;;0.80;;
15667;SDS011;7934;48.710;9.024;2023-01-13T05:53:24;0.77;;;0.77;;
15667;SDS011;7934;48.710;9.024;2023-01-13T05:55:51;1.33;;;0.88;;
15667;SDS011;7934;48.710;9.024;2023-01-13T05:58:19;0.55;;;0.55;;
15667;SDS011;7934;48.710;9.024;2023-01-13T06:00:46;0.60;;;0.57;;
15667;SDS011;7934;48.710;9.024;2023-01-13T06:03:15;0.60;;;0.52;;
15667;SDS011;7934;48.710;9.024;2023-01-13T06:05:44;0.40;;;0.40;;
15667;SDS011;7934;48.710;9.024;2023-01-13T06:08:11;1.35;;;0.70;;
15667;SDS011;7934;48.710;9.024;2023-01-13T06:10:38;1.00;;;0.50;;
15667;SDS011;7934;48.710;9.024;2023-01-13T06:13:06;0.40;;;0.40;;
15667;SDS011;7934;48.710;9.024;2023-01-13T06:15:33;0.90;;;0.60;;
15667;SDS011;7934;48.710;9.024;2023-01-13T06:18:00;0.60;;;0.60;;
15667;SDS011;7934;48.710;9.024;2023-01-13T06:20:29;1.50;;;0.50;;
15667;SDS011;7934;48.710;9.024;2023-01-13T06:22:56;0.70;;;0.60;;
15667;SDS011;7934;48.710;9.024;2023-01-13T06:25:27;2.10;;;0.57;;
15667;SDS011;7934;48.710;9.024;2023-01-13T06:27:55;0.53;;;0.50;;
15667;SDS011;7934;48.710;9.024;2023-01-13T06:30:23;2.40;;;0.57;;
15667;SDS011;7934;48.710;9.024;2023-01-13T06:32:51;1.48;;;0.60;;
15667;SDS011;7934;48.710;9.024;2023-01-13T06:35:20;0.50;;;0.50;;
15667;SDS011;7934;48.710;9.024;2023-01-13T06:37:51;1.25;;;0.52;;
15667;SDS011;7934;48.710;9.024;2023-01-13T06:40:18;1.00;;;0.50;;
15667;SDS011;7934;48.710;9.024;2023-01-13T06:42:46;0.77;;;0.60;;
15667;SDS011;7934;48.710;9.024;2023-01-13T06:45:30;0.93;;;0.50;;
15667;SDS011;7934;48.710;9.024;2023-01-13T06:47:58;1.88;;;0.50;;
15667;SDS011;7934;48.710;9.024;2023-01-13T06:50:25;0.40;;;0.40;;
15667;SDS011;7934;48.710;9.024;2023-01-13T06:52:54;0.47;;;0.47;;
15667;SDS011;7934;48.710;9.024;2023-01-13T06:55:22;0.50;;;0.50;;
15667;SDS011;7934;48.710;9.024;2023-01-13T06:57:50;0.77;;;0.77;;
15667;SDS011;7934;48.710;9.024;2023-01-13T07:00:18;0.55;;;0.55;;
15667;SDS011;7934;48.710;9.024;2023-01-13T07:02:45;1.17;;;1.17;;
15667;SDS011;7934;48.710;9.024;2023-01-13T07:05:12;1.90;;;0.80;;
15667;SDS011;7934;48.710;9.024;2023-01-13T07:07:40;0.88;;;0.88;;
15667;SDS011;7934;48.710;9.024;2023-01-13T07:10:09;0.88;;;0.88;;
15667;SDS011;7934;48.710;9.024;2023-01-13T07:12:38;0.52;;;0.52;;
15667;SDS011;7934;48.710;9.024;2023-01-13T07:15:19;1.50;;;0.47;;
15667;SDS011;7934;48.710;9.024;2023-01-13T07:17:54;0.82;;;0.50;;
15667;SDS011;7934;48.710;9.024;2023-01-13T07:20:21;0.50;;;0.50;;
15667;SDS011;7934;48.710;9.024;2023-01-13T07:22:52;0.40;;;0.40;;
15667;SDS011;7934;48.710;9.024;2023-01-13T07:25:21;0.50;;;0.40;;
15667;SDS011;7934;48.710;9.024;2023-01-13T07:27:50;0.40;;;0.40;;
15667;SDS011;7934;48.710;9.024;2023-01-13T07:30:24;0.68;;;0.40;;
15667;SDS011;7934;48.710;9.024;2023-01-13T07:32:54;1.70;;;0.70;;
15667;SDS011;7934;48.710;9.024;2023-01-13T07:35:22;0.40;;;0.40;;
15667;SDS011;7934;48.710;9.024;2023-01-13T07:37:50;1.20;;;0.50;;
15667;SDS011;7934;48.710;9.024;2023-01-13T07:40:17;0.50;;;0.50;;
15667;SDS011;7934;48.710;9.024;2023-01-13T07:42:46;0.80;;;0.63;;
15667;SDS011;7934;48.710;9.024;2023-01-13T07:45:31;0.63;;;0.63;;
15667;SDS011;7934;48.710;9.024;2023-01-13T07:48:01;1.20;;;0.60;;
15667;SDS011;7934;48.710;9.024;2023-01-13T07:50:28;0.50;;;0.50;;
15667;SDS011;7934;48.710;9.024;2023-01-13T07:52:56;1.00;;;0.40;;
15667;SDS011;7934;48.710;9.024;2023-01-13T07:55:23;0.70;;;0.50;;
15667;SDS011;7934;48.710;9.024;2023-01-13T07:57:53;0.68;;;0.50;;
15667;SDS011;7934;48.710;9.024;2023-01-13T08:00:20;0.70;;;0.55;;
15667;SDS011;7934;48.710;9.024;2023-01-13T08:02:47;0.60;;;0.50;;
15667;SDS011;7934;48.710;9.024;2023-01-13T08:05:14;0.85;;;0.50;;
15667;SDS011;7934;48.710;9.024;2023-01-13T08:07:42;1.00;;;0.45;;
15667;SDS011;7934;48.710;9.024;2023-01-13T08:10:09;0.57;;;0.32;;
15667;SDS011;7934;48.710;9.024;2023-01-13T08:12:36;0.50;;;0.50;;
15667;SDS011;7934;48.710;9.024;2023-01-13T08:15:26;0.70;;;0.40;;
15667;SDS011;7934;48.710;9.024;2023-01-13T08:17:53;1.52;;;0.60;;
15667;SDS011;7934;48.710;9.024;2023-01-13T08:20:21;0.55;;;0.55;;
15667;SDS011;7934;48.710;9.024;2023-01-13T08:22:48;1.10;;;0.80;;
15667;SDS011;7934;48.710;9.024;2023-01-13T08:25:16;1.25;;;0.55;;
15667;SDS011;7934;48.710;9.024;2023-01-13T08:27:43;1.88;;;0.68;;
15667;SDS011;7934;48.710;9.024;2023-01-13T08:30:10;2.40;;;0.68;;
15667;SDS011;7934;48.710;9.024;2023-01-13T08:32:39;1.85;;;0.80;;
15667;SDS011;7934;48.710;9.024;2023-01-13T08:35:06;3.70;;;0.80;;
15667;SDS011;7934;48.710;9.024;2023-01-13T08:37:33;0.50;;;0.50;;
15667;SDS011;7934;48.710;9.024;2023-01-13T08:40:01;1.30;;;0.57;;
15667;SDS011;7934;48.710;9.024;2023-01-13T08:42:28;0.90;;;0.80;;
15667;SDS011;7934;48.710;9.024;2023-01-13T08:44:55;2.28;;;0.93;;
15667;SDS011;7934;48.710;9.024;2023-01-13T08:47:22;1.90;;;0.90;;
15667;SDS011;7934;48.710;9.024;2023-01-13T08:49:53;1.50;;;0.90;;
15667;SDS011;7934;48.710;9.024;2023-01-13T08:52:20;0.90;;;0.80;;
15667;SDS011;7934;48.710;9.024;2023-01-13T08:54:48;1.50;;;0.80;;
15667;SDS011;7934;48.710;9.024;2023-01-13T08:57:15;0.88;;;0.70;;
15667;SDS011;7934;48.710;9.024;2023-01-13T08:59:45;0.68;;;0.68;;
15667;SDS011;7934;48.710;9.024;2023-01-13T09:02:13;0.63;;;0.63;;
15667;SDS011;7934;48.710;9.024;2023-01-13T09:04:41;1.35;;;0.70;;
15667;SDS011;7934;48.710;9.024;2023-01-13T09:07:10;0.75;;;0.70;;
15667;SDS011;7934;48.710;9.024;2023-01-13T09:09:37;1.20;;;0.70;;
15667;SDS011;7934;48.710;9.024;2023-01-13T09:12:05;1.38;;;0.77;;
15667;SDS011;7934;48.710;9.024;2023-01-13T09:14:50;1.40;;;0.60;;
15667;SDS011;7934;48.710;9.024;2023-01-13T09:17:18;0.70;;;0.40;;
15667;SDS011;7934;48.710;9.024;2023-01-13T09:19:47;0.47;;;0.30;;
15667;SDS011;7934;48.710;9.024;2023-01-13T09:22:16;0.80;;;0.40;;
15667;SDS011;7934;48.710;9.024;2023-01-13T09:24:44;0.30;;;0.30;;
15667;SDS011;7934;48.710;9.024;2023-01-13T09:27:11;0.75;;;0.50;;
15667;SDS011;7934;48.710;9.024;2023-01-13T09:29:39;0.50;;;0.50;;
15667;SDS011;7934;48.710;9.024;2023-01-13T09:32:09;0.73;;;0.73;;
15667;SDS011;7934;48.710;9.024;2023-01-13T09:34:37;0.63;;;0.63;;
15667;SDS011;7934;48.710;9.024;2023-01-13T09:37:23;0.60;;;0.50;;
15667;SDS011;7934;48.710;9.024;2023-01-13T09:39:50;1.42;;;0.93;;
15667;SDS011;7934;48.710;9.024;2023-01-13T09:42:18;0.40;;;0.40;;
15667;SDS011;7934;48.710;9.024;2023-01-13T09:45:06;0.70;;;0.70;;
15667;SDS011;7934;48.710;9.024;2023-01-13T09:47:36;0.40;;;0.40;;
15667;SDS011;7934;48.710;9.024;2023-01-13T09:50:07;0.80;;;0.70;;
15667;SDS011;7934;48.710;9.024;2023-01-13T09:52:42;0.65;;;0.60;;
15667;SDS011;7934;48.710;9.024;2023-01-13T09:55:10;0.50;;;0.50;;
15667;SDS011;7934;48.710;9.024;2023-01-13T09:57:39;1.20;;;0.70;;
15667;SDS011;7934;48.710;9.024;2023-01-13T10:00:09;1.70;;;1.20;;
15667;SDS011;7934;48.710;9.024;2023-01-13T10:02:40;0.60;;;0.60;;
15667;SDS011;7934;48.710;9.024;2023-01-13T10:05:13;0.90;;;0.60;;
15667;SDS011;7934;48.710;9.024;2023-01-13T10:07:46;0.80;;;0.80;;
15667;SDS011;7934;48.710;9.024;2023-01-13T10:10:17;0.73;;;0.73;;
15667;SDS011;7934;48.710;9.024;2023-01-13T10:12:44;0.47;;;0.47;;
15667;SDS011;7934;48.710;9.024;2023-01-13T10:15:31;0.70;;;0.70;;
15667;SDS011;7934;48.710;9.024;2023-01-13T10:17:59;1.67;;;0.80;;
15667;SDS011;7934;48.710;9.024;2023-01-13T10:20:33;0.90;;;0.70;;
15667;SDS011;7934;48.710;9.024;2023-01-13T10:23:04;0.98;;;0.63;;
15667;SDS011;7934;48.710;9.024;2023-01-13T10:25:35;0.80;;;0.52;;
15667;SDS011;7934;48.710;9.024;2023-01-13T10:28:08;1.25;;;0.50;;
15667;SDS011;7934;48.710;9.024;2023-01-13T10:30:36;0.80;;;0.70;;
15667;SDS011;7934;48.710;9.024;2023-01-13T10:33:07;0.80;;;0.80;;
15667;SDS011;7934;48.710;9.024;2023-01-13T10:35:49;1.20;;;1.10;;
15667;SDS011;7934;48.710;9.024;2023-01-13T10:38:19;1.05;;;0.90;;
15667;SDS011;7934;48.710;9.024;2023-01-13T10:40:47;1.33;;;0.80;;
15667;SDS011;7934;48.710;9.024;2023-01-13T10:43:14;2.17;;;0.60;;
15667;SDS011;7934;48.710;9.024;2023-01-13T10:45:42;0.70;;;0.70;;
15667;SDS011;7934;48.710;9.024;2023-01-13T10:48:17;0.88;;;0.57;;
15667;SDS011;7934;48.710;9.024;2023-01-13T10:50:44;2.60;;;1.15;;
15667;SDS011;7934;48.710;9.024;2023-01-13T10:53:18;3.67;;;1.17;;
15667;SDS011;7934;48.710;9.024;2023-01-13T10:55:57;2.22;;;0.70;;
15667;SDS011;7934;48.710;9.024;2023-01-13T10:58:24;1.33;;;0.50;;
15667;SDS011;7934;48.710;9.024;2023-01-13T11:00:57;2.13;;;0.52;;
15667;SDS011;7934;48.710;9.024;2023-01-13T11:03:25;1.30;;;0.73;;
15667;SDS011;7934;48.710;9.024;2023-01-13T11:05:59;0.88;;;0.68;;
15667;SDS011;7934;48.710;9.024;2023-01-13T11:08:28;1.20;;;0.50;;
15667;SDS011;7934;48.710;9.024;2023-01-13T11:10:56;0.60;;;0.60;;
15667;SDS011;7934;48.710;9.024;2023-01-13T11:13:26;1.30;;;0.65;;
15667;SDS011;7934;48.710;9.024;2023-01-13T11:15:56;2.05;;;0.70;;
15667;SDS011;7934;48.710;9.024;2023-01-13T11:18:37;0.50;;;0.50;;
15667;SDS011;7934;48.710;9.024;2023-01-13T11:21:07;0.63;;;0.60;;
15667;SDS011;7934;48.710;9.024;2023-01-13T11:23:38;1.80;;;0.70;;
15667;SDS011;7934;48.710;9.024;2023-01-13T11:26:09;1.15;;;0.60;;
15667;SDS011;7934;48.710;9.024;2023-01-13T11:28:40;1.55;;;1.20;;
15667;SDS011;7934;48.710;9.024;2023-01-13T11:31:12;1.20;;;0.80;;
15667;SDS011;7934;48.710;9.024;2023-01-13T11:33:42;1.42;;;0.70;;
15667;SDS011;7934;48.710;9.024;2023-01-13T11:36:11;1.02;;;0.50;;
15667;SDS011;7934;48.710;9.024;2023-01-13T11:38:44;1.15;;;0.80;;
15667;SDS011;7934;48.710;9.024;2023-01-13T11:41:14;1.02;;;0.73;;
15667;SDS011;7934;48.710;9.024;2023-01-13T11:43:44;2.20;;;0.80;;
15667;SDS011;7934;48.710;9.024;2023-01-13T11:46:13;0.73;;;0.73;;
15667;SDS011;7934;48.710;9.024;2023-01-13T11:48:41;1.98;;;1.10;;
15667;SDS011;7934;48.710;9.024;2023-01-13T11:51:10;1.95;;;1.00;;
15667;SDS011;7934;48.710;9.024;2023-01-13T11:53:49;2.58;;;1.20;;
15667;SDS011;7934;48.710;9.024;2023-01-13T11:56:24;4.03;;;1.83;;
15667;SDS011;7934;48.710;9.024;2023-01-13T11:59:00;1.30;;;1.20;;
15667;SDS011;7934;48.710;9.024;2023-01-13T12:01:38;1.63;;;1.10;;
15667;SDS011;7934;48.710;9.024;2023-01-13T12:04:15;1.33;;;1.23;;
15667;SDS011;7934;48.710;9.024;2023-01-13T12:06:49;4.25;;;1.20;;
15667;SDS011;7934;48.710;9.024;2023-01-13T12:12:09;3.63;;;1.00;;
15667;SDS011;7934;48.710;9.024;2023-01-13T12:14:50;3.25;;;1.33;;
15667;SDS011;7934;48.710;9.024;2023-01-13T12:17:25;1.10;;;0.98;;
15667;SDS011;7934;48.710;9.024;2023-01-13T12:19:55;2.45;;;1.00;;
15667;SDS011;7934;48.710;9.024;2023-01-13T12:22:24;2.25;;;0.85;;
15667;SDS011;7934;48.710;9.024;2023-01-13T12:24:53;1.83;;;0.93;;
15667;SDS011;7934;48.710;9.024;2023-01-13T12:27:26;2.00;;;0.95;;
15667;SDS011;7934;48.710;9.024;2023-01-13T12:29:56;2.95;;;1.08;;
15667;SDS011;7934;48.710;9.024;2023-01-13T12:32:25;2.67;;;1.40;;
15667;SDS011;7934;48.710;9.024;2023-01-13T12:34:58;2.93;;;1.30;;
15667;SDS011;7934;48.710;9.024;2023-01-13T12:37:31;3.30;;;1.30;;
15667;SDS011;7934;48.710;9.024;2023-01-13T12:40:04;3.35;;;1.20;;
15667;SDS011;7934;48.710;9.024;2023-01-13T12:42:43;3.35;;;1.30;;
15667;SDS011;7934;48.710;9.024;2023-01-13T12:45:30;6.00;;;1.80;;
15667;SDS011;7934;48.710;9.024;2023-01-13T12:47:58;3.65;;;1.58;;
15667;SDS011;7934;48.710;9.024;2023-01-13T12:50:35;3.65;;;1.70;;
15667;SDS011;7934;48.710;9.024;2023-01-13T12:55:49;4.53;;;1.45;;
15667;SDS011;7934;48.710;9.024;2023-01-13T12:58:18;7.45;;;1.90;;
15667;SDS011;7934;48.710;9.024;2023-01-13T13:00:56;4.60;;;1.60;;
15667;SDS011;7934;48.710;9.024;2023-01-13T13:03:28;5.67;;;1.60;;
15667;SDS011;7934;48.710;9.024;2023-01-13T13:06:04;5.13;;;1.63;;
15667;SDS011;7934;48.710;9.024;2023-01-13T13:08:41;2.70;;;1.45;;
15667;SDS011;7934;48.710;9.024;2023-01-13T13:11:22;7.53;;;2.00;;
15667;SDS011;7934;48.710;9.024;2023-01-13T13:17:42;4.78;;;1.50;;
15667;SDS011;7934;48.710;9.024;2023-01-13T13:22:51;5.38;;;1.77;;
15667;SDS011;7934;48.710;9.024;2023-01-13T13:25:23;6.05;;;1.80;;
15667;SDS011;7934;48.710;9.024;2023-01-13T13:27:57;3.92;;;1.75;;
15667;SDS011;7934;48.710;9.024;2023-01-13T13:30:27;5.00;;;1.60;;
15667;SDS011;7934;48.710;9.024;2023-01-13T13:33:00;3.58;;;1.52;;
15667;SDS011;7934;48.710;9.024;2023-01-13T13:35:36;4.50;;;1.38;;
15667;SDS011;7934;48.710;9.024;2023-01-13T13:38:10;5.95;;;1.70;;
15667;SDS011;7934;48.710;9.024;2023-01-13T13:40:56;4.55;;;1.50;;
15667;SDS011;7934;48.710;9.024;2023-01-13T13:43:41;5.35;;;1.77;;
15667;SDS011;7934;48.710;9.024;2023-01-13T13:46:27;2.73;;;1.60;;
15667;SDS011;7934;48.710;9.024;2023-01-13T13:49:15;4.60;;;1.95;;
15667;SDS011;7934;48.710;9.024;2023-01-13T13:51:44;4.28;;;1.50;;
15667;SDS011;7934;48.710;9.024;2023-01-13T13:54:15;4.82;;;1.60;;
15667;SDS011;7934;48.710;9.024;2023-01-13T13:56:44;3.13;;;1.40;;
15667;SDS011;7934;48.710;9.024;2023-01-13T13:59:11;7.82;;;2.00;;
15667;SDS011;7934;48.710;9.024;2023-01-13T14:01:40;3.63;;;1.50;;
15667;SDS011;7934;48.710;9.024;2023-01-13T14:04:16;5.90;;;1.67;;
15667;SDS011;7934;48.710;9.024;2023-01-13T14:06:50;7.75;;;1.95;;
15667;SDS011;7934;48.710;9.024;2023-01-13T14:09:21;6.22;;;1.42;;
15667;SDS011;7934;48.710;9.024;2023-01-13T14:11:55;6.70;;;1.58;;
15667;SDS011;7934;48.710;9.024;2023-01-13T14:14:23;7.60;;;1.83;;
15667;SDS011;7934;48.710;9.024;2023-01-13T14:16:51;8.30;;;2.28;;
15667;SDS011;7934;48.710;9.024;2023-01-13T14:19:25;4.57;;;2.28;;
15667;SDS011;7934;48.710;9.024;2023-01-13T14:21:53;4.70;;;1.58;;
15667;SDS011;7934;48.710;9.024;2023-01-13T14:24:21;4.40;;;1.27;;
15667;SDS011;7934;48.710;9.024;2023-01-13T14:26:50;5.03;;;1.20;;
15667;SDS011;7934;48.710;9.024;2023-01-13T14:29:18;5.80;;;1.57;;
15667;SDS011;7934;48.710;9.024;2023-01-13T14:31:46;2.17;;;1.20;;
15667;SDS011;7934;48.710;9.024;2023-01-13T14:34:13;6.50;;;1.40;;
15667;SDS011;7934;48.710;9.024;2023-01-13T14:36:42;3.67;;;1.40;;
15667;SDS011;7934;48.710;9.024;2023-01-13T14:39:25;4.38;;;1.30;;
15667;SDS011;7934;48.710;9.024;2023-01-13T14:41:57;5.63;;;1.70;;
15667;SDS011;7934;48.710;9.024;2023-01-13T14:44:25;4.15;;;2.33;;
15667;SDS011;7934;48.710;9.024;2023-01-13T14:46:54;4.07;;;2.40;;
15667;SDS011;7934;48.710;9.024;2023-01-13T14:49:22;6.47;;;2.50;;
15667;SDS011;7934;48.710;9.024;2023-01-13T14:51:52;5.13;;;3.60;;
15667;SDS011;7934;48.710;9.024;2023-01-13T14:57:09;5.30;;;2.60;;
15667;SDS011;7934;48.710;9.024;2023-01-13T14:59:41;3.50;;;2.30;;
15667;SDS011;7934;48.710;9.024;2023-01-13T15:04:55;3.05;;;1.60;;
15667;SDS011;7934;48.710;9.024;2023-01-13T15:07:25;3.67;;;1.70;;
15667;SDS011;7934;48.710;9.024;2023-01-13T15:09:53;5.43;;;2.20;;
15667;SDS011;7934;48.710;9.024;2023-01-13T15:12:21;3.55;;;1.58;;
15667;SDS011;7934;48.710;9.024;2023-01-13T15:14:49;3.47;;;1.58;;
15667;SDS011;7934;48.710;9.024;2023-01-13T15:17:17;3.72;;;1.70;;
15667;SDS011;7934;48.710;9.024;2023-01-13T15:19:44;4.18;;;1.77;;
15667;SDS011;7934;48.710;9.024;2023-01-13T15:22:11;3.10;;;1.33;;
15667;SDS011;7934;48.710;9.024;2023-01-13T15:24:40;3.20;;;1.40;;
15667;SDS011;7934;48.710;9.024;2023-01-13T15:27:13;5.63;;;1.73;;
15667;SDS011;7934;48.710;9.024;2023-01-13T15:29:41;5.93;;;1.80;;
15667;SDS011;7934;48.710;9.024;2023-01-13T15:32:08;4.50;;;1.40;;
15667;SDS011;7934;48.710;9.024;2023-01-13T15:34:36;6.50;;;1.73;;
15667;SDS011;7934;48.710;9.024;2023-01-13T15:37:04;5.17;;;1.50;;
15667;SDS011;7934;48.710;9.024;2023-01-13T15:39:31;6.07;;;1.80;;